createdAt,value
2019-06-07T00:00:38.193Z,5.20
2019-06-07T00:01:25.338Z,4.40
2019-06-07T00:02:25.390Z,5.00
2019-06-07T00:03:29.934Z,4.80
2019-06-07T00:04:25.501Z,4.70
2019-06-07T00:05:25.557Z,5.90
2019-06-07T00:06:26.063Z,4.70
2019-06-07T00:07:25.671Z,6.10
2019-06-07T00:08:28.987Z,4.90
2019-06-07T00:09:25.781Z,6.50
2019-06-07T00:10:35.809Z,4.30
2019-06-07T00:11:25.892Z,5.90
2019-06-07T00:12:25.949Z,4.30
2019-06-07T00:13:26.025Z,5.60
2019-06-07T00:14:26.060Z,4.70
2019-06-07T00:15:28.911Z,4.30
2019-06-07T00:16:26.170Z,5.00
2019-06-07T00:17:26.248Z,3.90
2019-06-07T00:18:26.391Z,5.20
2019-06-07T00:19:26.342Z,4.90
2019-06-07T00:20:26.395Z,5.60
2019-06-07T00:22:12.735Z,5.70
2019-06-07T00:22:32.902Z,5.40
2019-06-07T00:23:26.596Z,6.60
2019-06-07T00:24:26.615Z,4.60
2019-06-07T00:25:26.672Z,6.00
2019-06-07T00:26:26.726Z,6.50
2019-06-07T00:27:26.785Z,4.30
2019-06-07T00:28:26.837Z,5.50
2019-06-07T00:29:26.896Z,5.60
2019-06-07T00:30:41.081Z,5.90
2019-06-07T00:31:27.006Z,6.30
2019-06-07T00:32:27.062Z,4.70
2019-06-07T00:33:27.116Z,5.70
2019-06-07T00:34:27.171Z,4.20
2019-06-07T00:35:27.227Z,5.70
2019-06-07T00:36:27.282Z,5.10
2019-06-07T00:37:27.340Z,7.30
2019-06-07T00:38:27.413Z,5.20
2019-06-07T00:39:27.449Z,4.60
2019-06-07T00:40:32.010Z,6.50
2019-06-07T00:41:27.585Z,5.10
2019-06-07T00:42:27.619Z,6.40
2019-06-07T00:43:28.614Z,8.40
2019-06-07T00:44:27.745Z,4.50
2019-06-07T00:45:27.783Z,6.40
2019-06-07T00:46:27.837Z,7.00
2019-06-07T00:47:27.894Z,5.20
2019-06-07T00:48:32.581Z,5.70
2019-06-07T00:49:40.362Z,4.50
2019-06-07T00:50:28.061Z,4.90
2019-06-07T00:51:47.569Z,6.40
2019-06-07T00:53:32.150Z,4.20
2019-06-07T00:54:28.282Z,6.40
2019-06-07T00:55:28.338Z,5.30
2019-06-07T00:56:28.395Z,5.30
2019-06-07T00:57:28.452Z,5.80
2019-06-07T00:58:29.546Z,6.10
2019-06-07T00:59:29.738Z,4.30
2019-06-07T01:00:28.615Z,5.40
2019-06-07T01:01:28.670Z,4.00
2019-06-07T01:02:31.472Z,4.40
2019-06-07T01:03:28.782Z,4.20
2019-06-07T01:04:28.959Z,5.70
2019-06-07T01:05:31.332Z,4.90
2019-06-07T01:06:28.948Z,7.00
2019-06-07T01:07:29.004Z,5.60
2019-06-07T01:08:30.269Z,4.90
2019-06-07T01:09:29.118Z,4.90
2019-06-07T01:10:52.410Z,4.20
2019-06-07T01:11:29.224Z,4.40
2019-06-07T01:12:29.281Z,5.60
2019-06-07T01:13:29.381Z,5.70
2019-06-07T01:14:29.416Z,5.90
2019-06-07T01:15:29.527Z,4.60
2019-06-07T01:16:53.067Z,8.30
2019-06-07T01:17:40.855Z,6.00
2019-06-07T01:18:42.917Z,9.80
2019-06-07T01:19:29.670Z,6.90
2019-06-07T01:20:29.774Z,3.80
2019-06-07T01:21:30.108Z,4.30
2019-06-07T01:22:29.835Z,5.40
2019-06-07T01:24:29.947Z,4.20
2019-06-07T01:25:30.059Z,5.70
2019-06-07T01:26:30.575Z,4.40
2019-06-07T01:27:30.114Z,6.90
2019-06-07T01:28:30.390Z,5.40
2019-06-07T01:29:31.197Z,4.50
2019-06-07T01:30:30.282Z,5.20
2019-06-07T01:31:31.539Z,4.90
2019-06-07T01:32:31.830Z,5.90
2019-06-07T01:33:49.918Z,5.20
2019-06-07T01:34:30.504Z,4.70
2019-06-07T01:35:30.561Z,5.70
2019-06-07T01:36:31.094Z,7.30
2019-06-07T01:37:30.672Z,4.90
2019-06-07T01:38:30.727Z,5.00
2019-06-07T01:39:31.874Z,4.90
2019-06-07T01:40:32.915Z,5.50
2019-06-07T01:41:31.065Z,6.00
2019-06-07T01:42:31.208Z,5.10
2019-06-07T01:43:31.318Z,4.70
2019-06-07T01:44:31.467Z,5.60
2019-06-07T01:45:31.314Z,4.70
2019-06-07T01:46:31.206Z,5.50
2019-06-07T01:47:31.998Z,5.80
2019-06-07T01:48:48.586Z,5.00
2019-06-07T01:49:31.340Z,4.30
2019-06-07T01:50:31.440Z,5.20
2019-06-07T01:51:31.450Z,4.00
2019-06-07T01:52:31.505Z,5.20
2019-06-07T01:53:31.838Z,5.00
2019-06-07T01:55:32.755Z,5.80
2019-06-07T01:56:31.728Z,5.90
2019-06-07T01:57:45.476Z,5.70
2019-06-07T01:58:31.838Z,4.80
2019-06-07T01:59:32.126Z,5.00
2019-06-07T02:00:32.716Z,6.00
2019-06-07T02:01:35.289Z,5.30
2019-06-07T02:02:32.062Z,6.50
2019-06-07T02:03:33.103Z,5.60
2019-06-07T02:04:33.365Z,5.40
2019-06-07T02:05:32.507Z,6.10
2019-06-07T02:06:32.402Z,5.20
2019-06-07T02:07:33.377Z,6.80
2019-06-07T02:08:34.360Z,4.20
2019-06-07T02:09:32.466Z,4.20
2019-06-07T02:10:33.766Z,5.80
2019-06-07T02:11:33.692Z,11.90
2019-06-07T02:12:42.364Z,5.90
2019-06-07T02:13:32.673Z,5.70
2019-06-07T02:14:33.777Z,5.10
2019-06-07T02:15:36.776Z,5.10
2019-06-07T02:16:32.839Z,4.20
2019-06-07T02:17:33.355Z,4.40
2019-06-07T02:18:34.928Z,5.20
2019-06-07T02:19:33.548Z,4.60
2019-06-07T02:20:34.417Z,5.20
2019-06-07T02:21:34.461Z,5.10
2019-06-07T02:22:33.170Z,5.10
2019-06-07T02:23:33.776Z,5.10
2019-06-07T02:24:35.783Z,5.50
2019-06-07T02:25:45.520Z,8.10
2019-06-07T02:26:33.396Z,5.70
2019-06-07T02:27:33.452Z,6.00
2019-06-07T02:28:44.418Z,7.00
2019-06-07T02:29:33.895Z,4.40
2019-06-07T02:30:45.871Z,4.40
2019-06-07T02:31:39.051Z,5.60
2019-06-07T02:32:36.654Z,6.40
2019-06-07T02:33:39.711Z,5.90
2019-06-07T02:34:38.827Z,5.50
2019-06-07T02:35:40.526Z,5.00
2019-06-07T02:36:41.056Z,5.80
2019-06-07T02:37:36.772Z,6.90
2019-06-07T02:38:37.514Z,5.60
2019-06-07T02:39:38.109Z,5.50
2019-06-07T02:40:37.258Z,5.70
2019-06-07T02:41:39.352Z,6.30
2019-06-07T02:42:38.956Z,6.10
2019-06-07T02:43:36.930Z,5.70
2019-06-07T02:44:38.916Z,9.60
2019-06-07T02:45:42.566Z,5.50
2019-06-07T02:46:44.798Z,5.30
2019-06-07T02:47:37.656Z,4.20
2019-06-07T02:48:39.818Z,4.00
2019-06-07T02:49:41.156Z,6.10
2019-06-07T02:50:37.988Z,6.00
2019-06-07T02:51:41.093Z,5.40
2019-06-07T02:52:40.391Z,4.90
2019-06-07T02:53:40.060Z,4.90
2019-06-07T02:54:39.824Z,4.80
2019-06-07T02:56:26.541Z,4.30
2019-06-07T02:56:48.734Z,4.30
2019-06-07T02:57:36.996Z,4.10
2019-06-07T02:58:41.165Z,4.70
2019-06-07T03:00:04.289Z,4.80
2019-06-07T03:01:00.091Z,4.40
2019-06-07T03:01:39.418Z,6.00
2019-06-07T03:02:41.014Z,5.60
2019-06-07T03:03:39.582Z,5.10
2019-06-07T03:04:41.556Z,3.90
2019-06-07T03:05:40.297Z,5.30
2019-06-07T03:06:39.529Z,5.20
2019-06-07T03:07:39.128Z,6.10
2019-06-07T03:08:36.761Z,5.20
2019-06-07T03:09:37.150Z,4.50
2019-06-07T03:10:37.743Z,5.80
2019-06-07T03:11:37.624Z,3.90
2019-06-07T03:12:35.937Z,4.60
2019-06-07T03:13:37.407Z,4.30
2019-06-07T03:14:36.046Z,5.60
2019-06-07T03:15:47.738Z,4.20
2019-06-07T03:16:37.287Z,4.40
2019-06-07T03:17:38.378Z,5.40
2019-06-07T03:18:36.543Z,6.00
2019-06-07T03:19:37.850Z,3.60
2019-06-07T03:20:36.889Z,4.40
2019-06-07T03:21:36.550Z,6.00
2019-06-07T03:22:39.944Z,4.10
2019-06-07T03:23:36.542Z,4.80
2019-06-07T03:24:41.682Z,4.80
2019-06-07T03:25:37.369Z,4.40
2019-06-07T03:27:23.992Z,4.60
2019-06-07T03:27:48.867Z,4.70
2019-06-07T03:28:39.173Z,4.80
2019-06-07T03:29:36.874Z,5.60
2019-06-07T03:30:52.781Z,5.10
2019-06-07T03:31:42.793Z,3.90
2019-06-07T03:32:46.434Z,4.60
2019-06-07T03:33:42.918Z,4.20
2019-06-07T03:34:41.235Z,6.50
2019-06-07T03:35:37.678Z,4.60
2019-06-07T03:36:40.033Z,4.40
2019-06-07T03:37:40.645Z,9.10
2019-06-07T03:38:39.658Z,10.50
2019-06-07T03:39:40.947Z,5.40
2019-06-07T03:40:39.948Z,4.60
2019-06-07T03:41:49.906Z,4.90
2019-06-07T03:42:38.766Z,5.30
2019-06-07T03:43:40.453Z,5.00
2019-06-07T03:44:40.626Z,4.50
2019-06-07T03:45:41.235Z,4.90
2019-06-07T03:46:41.190Z,6.70
2019-06-07T03:47:41.375Z,5.70
2019-06-07T03:48:41.167Z,4.30
2019-06-07T03:49:42.132Z,5.10
2019-06-07T03:50:41.933Z,4.50
2019-06-07T03:51:39.637Z,6.00
2019-06-07T03:52:40.637Z,4.80
2019-06-07T03:53:40.760Z,5.60
2019-06-07T03:54:39.897Z,4.80
2019-06-07T03:55:41.185Z,4.30
2019-06-07T03:56:40.967Z,4.90
2019-06-07T03:58:29.340Z,5.90
2019-06-07T03:58:49.033Z,5.20
2019-06-07T03:59:41.236Z,4.10
2019-06-07T04:00:42.582Z,6.60
2019-06-07T04:01:41.140Z,5.60
2019-06-07T04:02:41.867Z,4.40
2019-06-07T04:03:46.352Z,4.80
2019-06-07T04:04:39.917Z,6.90
2019-06-07T04:05:43.350Z,6.40
2019-06-07T04:06:41.958Z,4.60
2019-06-07T04:07:43.709Z,5.30
2019-06-07T04:08:42.086Z,5.60
2019-06-07T04:09:42.669Z,5.10
2019-06-07T04:10:55.838Z,6.30
2019-06-07T04:11:40.820Z,6.00
2019-06-07T04:12:43.797Z,4.70
2019-06-07T04:13:42.943Z,6.20
2019-06-07T04:14:42.511Z,5.50
2019-06-07T04:15:41.322Z,4.30
2019-06-07T04:16:44.121Z,5.70
2019-06-07T04:17:55.917Z,4.80
2019-06-07T04:18:40.760Z,4.90
2019-06-07T04:19:43.293Z,4.90
2019-06-07T04:20:41.425Z,3.90
2019-06-07T04:21:42.697Z,6.60
2019-06-07T04:22:42.622Z,6.00
2019-06-07T04:23:45.290Z,4.00
2019-06-07T04:24:41.933Z,4.80
2019-06-07T04:25:42.596Z,4.80
2019-06-07T04:26:43.557Z,5.00
2019-06-07T04:27:41.058Z,3.90
2019-06-07T04:29:30.816Z,5.80
2019-06-07T04:30:04.311Z,4.40
2019-06-07T04:30:41.800Z,6.10
2019-06-07T04:31:42.841Z,5.80
2019-06-07T04:32:44.754Z,4.90
2019-06-07T04:33:43.633Z,5.20
2019-06-07T04:34:43.034Z,5.20
2019-06-07T04:35:42.891Z,5.90
2019-06-07T04:36:55.291Z,4.80
2019-06-07T04:37:41.460Z,6.70
2019-06-07T04:38:42.640Z,4.30
2019-06-07T04:39:44.667Z,5.40
2019-06-07T04:40:42.942Z,5.70
2019-06-07T04:41:41.052Z,6.60
2019-06-07T04:42:44.777Z,4.40
2019-06-07T04:43:41.286Z,4.60
2019-06-07T04:44:42.751Z,4.50
2019-06-07T04:45:50.278Z,5.70
2019-06-07T04:46:42.815Z,5.00
2019-06-07T04:47:42.392Z,8.90
2019-06-07T04:48:43.319Z,4.60
2019-06-07T04:49:44.080Z,5.30
2019-06-07T04:50:44.080Z,5.50
2019-06-07T04:51:42.368Z,6.30
2019-06-07T04:52:44.836Z,8.30
2019-06-07T04:53:43.355Z,5.70
2019-06-07T04:54:45.760Z,7.60
2019-06-07T04:55:42.184Z,5.20
2019-06-07T04:56:44.463Z,5.70
2019-06-07T04:57:43.087Z,5.20
2019-06-07T04:58:43.116Z,5.60
2019-06-07T05:00:10.531Z,6.80
2019-06-07T05:00:55.649Z,7.70
2019-06-07T05:01:42.783Z,9.10
2019-06-07T05:02:43.397Z,6.30
2019-06-07T05:03:44.237Z,6.40
2019-06-07T05:04:42.586Z,8.00
2019-06-07T05:05:43.865Z,5.70
2019-06-07T05:06:42.569Z,4.70
2019-06-07T05:07:45.981Z,5.90
2019-06-07T05:08:43.850Z,5.60
2019-06-07T05:09:43.359Z,6.50
2019-06-07T05:10:43.872Z,5.80
2019-06-07T05:11:44.864Z,7.00
2019-06-07T05:12:44.302Z,6.40
2019-06-07T05:13:43.846Z,6.30
2019-06-07T05:14:44.336Z,7.20
2019-06-07T05:15:42.723Z,7.50
2019-06-07T05:16:44.356Z,7.60
2019-06-07T05:17:44.949Z,9.70
2019-06-07T05:18:43.379Z,9.10
2019-06-07T05:19:44.553Z,6.10
2019-06-07T05:20:44.442Z,6.20
2019-06-07T05:22:01.519Z,9.50
2019-06-07T05:22:45.241Z,7.80
2019-06-07T05:24:05.737Z,8.20
2019-06-07T05:24:43.892Z,6.30
2019-06-07T05:25:44.783Z,7.90
2019-06-07T05:26:43.339Z,7.60
2019-06-07T05:27:46.766Z,8.10
2019-06-07T05:28:43.450Z,7.70
2019-06-07T05:29:44.302Z,8.70
2019-06-07T05:31:03.747Z,7.50
2019-06-07T05:31:45.502Z,8.10
2019-06-07T05:32:46.117Z,7.00
2019-06-07T05:33:43.784Z,6.30
2019-06-07T05:34:47.232Z,6.90
2019-06-07T05:35:44.266Z,7.40
2019-06-07T05:36:45.069Z,8.00
2019-06-07T05:37:48.203Z,8.50
2019-06-07T05:38:44.863Z,7.70
2019-06-07T05:39:46.463Z,7.60
2019-06-07T05:40:48.722Z,8.50
2019-06-07T05:41:44.574Z,9.30
2019-06-07T05:42:46.692Z,7.70
2019-06-07T05:43:55.082Z,8.40
2019-06-07T05:44:45.822Z,8.20
2019-06-07T05:45:46.848Z,8.30
2019-06-07T05:46:47.230Z,8.00
2019-06-07T05:47:50.862Z,10.20
2019-06-07T05:48:44.580Z,8.40
2019-06-07T05:49:47.118Z,7.20
2019-06-07T05:50:55.347Z,8.10
2019-06-07T05:51:45.286Z,8.10
2019-06-07T05:52:47.484Z,9.00
2019-06-07T05:53:45.967Z,12.70
2019-06-07T05:54:45.537Z,8.70
2019-06-07T05:55:47.513Z,10.90
2019-06-07T05:56:45.490Z,8.90
2019-06-07T05:57:49.112Z,8.10
2019-06-07T05:58:45.147Z,7.40
2019-06-07T05:59:47.565Z,7.50
2019-06-07T06:00:47.597Z,9.10
2019-06-07T06:01:55.947Z,10.50
2019-06-07T06:03:04.341Z,9.80
2019-06-07T06:03:48.045Z,7.80
2019-06-07T06:04:49.007Z,7.10
2019-06-07T06:05:53.769Z,7.70
2019-06-07T06:06:47.371Z,8.60
2019-06-07T06:07:50.677Z,7.50
2019-06-07T06:08:47.902Z,7.60
2019-06-07T06:09:46.173Z,7.30
2019-06-07T06:10:48.639Z,6.80
2019-06-07T06:11:59.706Z,7.70
2019-06-07T06:12:51.504Z,9.60
2019-06-07T06:14:05.642Z,7.10
2019-06-07T06:14:47.078Z,8.00
2019-06-07T06:16:00.572Z,7.30
2019-06-07T06:16:49.397Z,7.60
2019-06-07T06:17:49.985Z,7.60
2019-06-07T06:18:47.706Z,8.50
2019-06-07T06:19:52.030Z,7.70
2019-06-07T06:21:09.759Z,8.80
2019-06-07T06:21:46.574Z,7.90
2019-06-07T06:22:48.714Z,7.10
2019-06-07T06:23:50.759Z,7.70
2019-06-07T06:25:17.774Z,6.90
2019-06-07T06:25:55.605Z,7.20
2019-06-07T06:26:52.242Z,8.30
2019-06-07T06:28:49.451Z,6.10
2019-06-07T06:29:50.090Z,9.00
2019-06-07T06:30:48.021Z,9.10
2019-06-07T06:32:39.183Z,6.70
2019-06-07T06:32:56.911Z,9.30
2019-06-07T06:33:49.556Z,7.30
2019-06-07T06:34:50.703Z,9.70
2019-06-07T06:35:49.409Z,8.40
2019-06-07T06:36:50.356Z,6.90
2019-06-07T06:37:52.962Z,7.30
2019-06-07T06:38:49.840Z,7.20
2019-06-07T06:39:49.966Z,7.80
2019-06-07T06:40:54.788Z,8.40
2019-06-07T06:41:58.473Z,7.60
2019-06-07T06:42:50.095Z,9.40
2019-06-07T06:43:52.110Z,7.80
2019-06-07T06:44:53.618Z,8.50
2019-06-07T06:45:50.575Z,6.10
2019-06-07T06:46:57.020Z,7.40
2019-06-07T06:47:50.538Z,7.90
2019-06-07T06:48:54.485Z,8.00
2019-06-07T06:49:50.017Z,9.20
2019-06-07T06:50:52.235Z,8.90
2019-06-07T06:51:53.358Z,8.90
2019-06-07T06:52:53.456Z,7.30
2019-06-07T06:53:49.889Z,8.00
2019-06-07T06:54:55.386Z,7.70
2019-06-07T06:55:51.175Z,6.90
2019-06-07T06:56:52.041Z,7.50
2019-06-07T06:57:51.189Z,6.90
2019-06-07T06:59:30.748Z,8.30
2019-06-07T06:59:51.111Z,7.00
2019-06-07T07:00:56.886Z,8.40
2019-06-07T07:01:50.959Z,7.30
2019-06-07T07:03:41.813Z,7.00
2019-06-07T07:04:06.799Z,7.00
2019-06-07T07:04:52.540Z,6.60
2019-06-07T07:05:50.828Z,6.70
2019-06-07T07:06:50.627Z,7.20
2019-06-07T07:07:51.625Z,9.40
2019-06-07T07:08:50.911Z,8.40
2019-06-07T07:09:54.750Z,6.70
2019-06-07T07:10:52.662Z,8.20
2019-06-07T07:12:04.174Z,7.10
2019-06-07T07:12:51.203Z,8.50
2019-06-07T07:13:55.769Z,7.80
2019-06-07T07:14:52.155Z,7.00
2019-06-07T07:15:55.202Z,7.40
2019-06-07T07:16:54.560Z,7.00
2019-06-07T07:18:03.704Z,6.90
2019-06-07T07:18:52.919Z,7.00
2019-06-07T07:19:52.155Z,7.80
2019-06-07T07:20:51.283Z,6.50
2019-06-07T07:21:52.959Z,7.00
2019-06-07T07:22:53.583Z,8.90
2019-06-07T07:24:15.166Z,6.40
2019-06-07T07:24:53.341Z,8.10
2019-06-07T07:25:55.376Z,7.80
2019-06-07T07:26:53.149Z,8.70
2019-06-07T07:27:53.838Z,7.00
2019-06-07T07:28:51.762Z,7.20
2019-06-07T07:30:10.264Z,6.70
2019-06-07T07:30:54.856Z,5.90
2019-06-07T07:31:53.810Z,4.70
2019-06-07T07:32:52.991Z,7.80
2019-06-07T07:34:54.509Z,4.50
2019-06-07T07:36:11.904Z,8.00
2019-06-07T07:36:57.897Z,5.50
2019-06-07T07:37:55.833Z,6.30
2019-06-07T07:39:00.437Z,5.60
2019-06-07T07:39:54.297Z,6.40
2019-06-07T07:41:13.321Z,5.10
2019-06-07T07:42:13.776Z,3.40
2019-06-07T07:42:54.574Z,4.60
2019-06-07T07:43:59.989Z,4.80
2019-06-07T07:44:54.598Z,6.00
2019-06-07T07:45:59.069Z,5.00
2019-06-07T07:46:53.838Z,4.90
2019-06-07T07:48:08.792Z,6.10
2019-06-07T07:48:54.243Z,4.00
2019-06-07T07:49:52.985Z,4.20
2019-06-07T07:50:56.899Z,4.20
2019-06-07T07:51:55.037Z,3.90
2019-06-07T07:52:59.200Z,6.30
2019-06-07T07:54:02.081Z,3.40
2019-06-07T07:54:52.816Z,3.20
2019-06-07T07:55:56.612Z,3.40
2019-06-07T07:56:55.611Z,4.80
2019-06-07T07:58:00.904Z,3.50
2019-06-07T07:58:57.959Z,3.50
2019-06-07T08:00:06.104Z,2.80
2019-06-07T08:01:00.365Z,6.90
2019-06-07T08:01:55.536Z,3.80
2019-06-07T08:02:53.754Z,3.70
2019-06-07T08:03:54.903Z,4.40
2019-06-07T08:05:20.670Z,3.40
2019-06-07T08:05:54.914Z,3.90
2019-06-07T08:06:54.733Z,2.40
2019-06-07T08:07:56.563Z,3.20
2019-06-07T08:08:55.769Z,3.50
2019-06-07T08:09:59.511Z,3.00
2019-06-07T08:10:58.060Z,3.50
2019-06-07T08:11:59.610Z,3.00
2019-06-07T08:13:16.247Z,3.70
2019-06-07T08:13:56.713Z,2.70
2019-06-07T08:14:57.529Z,2.20
2019-06-07T08:15:58.621Z,2.40
2019-06-07T08:16:54.382Z,2.40
2019-06-07T08:17:58.102Z,2.40
2019-06-07T08:18:57.478Z,5.50
2019-06-07T08:19:55.030Z,2.80
2019-06-07T08:21:17.206Z,2.50
2019-06-07T08:21:55.521Z,3.00
2019-06-07T08:22:58.850Z,2.70
2019-06-07T08:23:58.270Z,3.40
2019-06-07T08:24:55.323Z,2.10
2019-06-07T08:25:58.497Z,2.90
2019-06-07T08:27:17.713Z,3.20
2019-06-07T08:27:56.817Z,2.00
2019-06-07T08:28:58.506Z,3.60
2019-06-07T08:30:07.840Z,1.80
2019-06-07T08:31:03.409Z,2.10
2019-06-07T08:31:56.318Z,1.70
2019-06-07T08:32:58.424Z,3.10
2019-06-07T08:33:57.056Z,1.90
2019-06-07T08:34:59.657Z,1.70
2019-06-07T08:36:10.465Z,2.70
2019-06-07T08:36:58.394Z,2.20
2019-06-07T08:38:22.105Z,2.00
2019-06-07T08:38:57.882Z,2.90
2019-06-07T08:39:56.770Z,2.70
2019-06-07T08:41:02.247Z,1.90
2019-06-07T08:42:13.363Z,2.60
2019-06-07T08:43:19.620Z,2.10
2019-06-07T08:43:56.810Z,3.30
2019-06-07T08:45:01.613Z,1.80
2019-06-07T08:46:01.171Z,3.00
2019-06-07T08:47:12.564Z,1.90
2019-06-07T08:47:58.021Z,2.40
2019-06-07T08:48:57.175Z,2.00
2019-06-07T08:49:59.587Z,2.10
2019-06-07T08:50:58.736Z,1.70
2019-06-07T08:52:04.516Z,2.40
2019-06-07T08:53:02.858Z,2.60
2019-06-07T08:54:15.852Z,1.90
2019-06-07T08:54:57.835Z,4.00
2019-06-07T08:56:04.413Z,3.20
2019-06-07T08:57:13.222Z,3.10
2019-06-07T08:58:03.413Z,2.00
2019-06-07T08:59:00.425Z,2.20
2019-06-07T08:59:59.038Z,2.10
2019-06-07T09:00:59.385Z,2.10
2019-06-07T09:01:59.806Z,3.30
2019-06-07T09:02:58.917Z,1.80
2019-06-07T09:04:02.622Z,2.50
2019-06-07T09:04:59.211Z,2.20
2019-06-07T09:05:57.080Z,2.10
2019-06-07T09:07:14.836Z,2.70
2019-06-07T09:08:22.273Z,2.20
2019-06-07T09:09:00.386Z,2.30
2019-06-07T09:10:01.867Z,2.40
2019-06-07T09:10:58.926Z,2.70
2019-06-07T09:11:59.411Z,2.10
2019-06-07T09:13:00.321Z,2.60
2019-06-07T09:13:57.720Z,2.10
2019-06-07T09:15:12.066Z,2.00
2019-06-07T09:16:03.429Z,4.00
2019-06-07T09:17:04.327Z,3.30
2019-06-07T09:18:34.867Z,3.10
2019-06-07T09:18:58.981Z,2.10
2019-06-07T09:19:59.035Z,3.20
2019-06-07T09:20:58.226Z,2.10
2019-06-07T09:22:01.587Z,2.50
2019-06-07T09:23:01.705Z,2.20
2019-06-07T09:24:02.502Z,2.30
2019-06-07T09:25:04.310Z,1.90
2019-06-07T09:26:08.037Z,4.20
2019-06-07T09:26:58.321Z,2.40
2019-06-07T09:28:00.537Z,2.10
2019-06-07T09:28:58.452Z,1.70
2019-06-07T09:30:03.172Z,2.40
2019-06-07T09:30:59.754Z,6.10
2019-06-07T09:32:00.612Z,2.30
2019-06-07T09:32:58.966Z,2.40
2019-06-07T09:34:05.872Z,2.10
2019-06-07T09:35:03.910Z,1.90
2019-06-07T09:36:00.393Z,2.30
2019-06-07T09:37:03.430Z,1.70
2019-06-07T09:38:18.195Z,2.50
2019-06-07T09:38:59.554Z,1.80
2019-06-07T09:40:05.741Z,2.80
2019-06-07T09:41:00.446Z,3.40
2019-06-07T09:42:00.481Z,2.60
2019-06-07T09:43:47.591Z,3.00
2019-06-07T09:44:18.973Z,2.50
2019-06-07T09:45:03.190Z,2.20
2019-06-07T09:46:01.020Z,1.90
2019-06-07T09:47:20.145Z,2.70
2019-06-07T09:48:02.291Z,2.40
2019-06-07T09:49:13.925Z,2.70
2019-06-07T09:50:04.091Z,4.10
2019-06-07T09:51:01.968Z,2.40
2019-06-07T09:52:00.518Z,2.30
2019-06-07T09:53:16.212Z,2.80
2019-06-07T09:54:01.266Z,4.10
2019-06-07T09:55:09.311Z,2.10
2019-06-07T09:56:05.626Z,2.20
2019-06-07T09:57:02.662Z,2.10
2019-06-07T09:58:03.782Z,2.00
2019-06-07T09:59:02.863Z,2.40
2019-06-07T10:00:01.840Z,1.90
2019-06-07T10:01:04.460Z,2.30
2019-06-07T10:02:01.462Z,2.90
2019-06-07T10:03:08.865Z,2.20
2019-06-07T10:04:04.658Z,2.20
2019-06-07T10:05:04.081Z,2.20
2019-06-07T10:06:03.439Z,3.40
2019-06-07T10:07:09.044Z,3.20
2019-06-07T10:08:15.408Z,2.70
2019-06-07T10:10:07.123Z,2.60
2019-06-07T10:11:00.353Z,5.10
2019-06-07T10:12:00.399Z,3.10
2019-06-07T10:13:01.649Z,2.10
2019-06-07T10:14:00.381Z,2.40
2019-06-07T10:15:00.688Z,2.10
2019-06-07T10:16:00.877Z,2.80
2019-06-07T10:17:00.915Z,4.90
2019-06-07T10:18:00.795Z,2.00
2019-06-07T10:19:01.610Z,1.80
2019-06-07T10:20:02.594Z,2.40
2019-06-07T10:21:01.442Z,2.10
2019-06-07T10:22:01.347Z,2.20
2019-06-07T10:23:01.643Z,2.40
2019-06-07T10:24:01.275Z,2.00
2019-06-07T10:25:02.070Z,1.80
2019-06-07T10:26:01.590Z,3.20
2019-06-07T10:27:01.742Z,2.50
2019-06-07T10:28:01.839Z,3.10
2019-06-07T10:29:01.885Z,2.20
2019-06-07T10:30:02.331Z,2.20
2019-06-07T10:31:02.088Z,1.70
2019-06-07T10:32:02.256Z,2.30
2019-06-07T10:33:02.232Z,2.00
2019-06-07T10:34:02.329Z,1.70
2019-06-07T10:35:03.281Z,1.90
2019-06-07T10:36:02.494Z,3.10
2019-06-07T10:37:03.318Z,1.80
2019-06-07T10:38:02.467Z,1.90
2019-06-07T10:39:02.915Z,2.40
2019-06-07T10:40:02.896Z,2.20
2019-06-07T10:41:02.844Z,2.30
2019-06-07T10:42:04.150Z,2.40
2019-06-07T10:43:03.172Z,2.00
2019-06-07T10:44:03.307Z,1.80
2019-06-07T10:45:04.470Z,3.40
2019-06-07T10:46:03.653Z,3.30
2019-06-07T10:47:03.991Z,1.80
2019-06-07T10:48:03.572Z,5.60
2019-06-07T10:49:03.819Z,2.40
2019-06-07T10:50:03.863Z,1.90
2019-06-07T10:51:04.179Z,2.00
2019-06-07T10:52:05.039Z,1.90
2019-06-07T10:53:04.292Z,2.70
2019-06-07T10:54:10.696Z,1.90
2019-06-07T10:55:04.471Z,2.20
2019-06-07T10:56:04.810Z,2.10
2019-06-07T10:57:04.832Z,3.80
2019-06-07T10:58:04.726Z,3.40
2019-06-07T10:59:05.107Z,2.70
2019-06-07T11:00:05.204Z,2.20
2019-06-07T11:01:05.172Z,3.00
2019-06-07T11:02:05.596Z,3.40
2019-06-07T11:03:05.836Z,2.40
2019-06-07T11:04:05.621Z,2.60
2019-06-07T11:05:05.785Z,2.40
2019-06-07T11:06:05.613Z,2.90
2019-06-07T11:07:06.275Z,2.40
2019-06-07T11:08:04.130Z,2.30
2019-06-07T11:09:04.201Z,2.70
2019-06-07T11:10:10.687Z,3.50
2019-06-07T11:11:04.328Z,2.80
2019-06-07T11:12:06.298Z,2.50
2019-06-07T11:13:06.093Z,4.10
2019-06-07T11:14:06.453Z,2.70
2019-06-07T11:15:04.647Z,2.50
2019-06-07T11:16:04.785Z,3.00
2019-06-07T11:17:05.244Z,2.60
2019-06-07T11:18:06.119Z,3.60
2019-06-07T11:19:06.048Z,3.40
2019-06-07T11:20:06.048Z,2.20
2019-06-07T11:21:06.038Z,2.90
2019-06-07T11:22:06.070Z,3.40
2019-06-07T11:23:06.685Z,3.20
2019-06-07T11:24:06.140Z,2.20
2019-06-07T11:25:06.887Z,2.30
2019-06-07T11:26:06.174Z,2.50
2019-06-07T11:27:07.130Z,2.60
2019-06-07T11:28:06.333Z,2.30
2019-06-07T11:29:06.638Z,4.30
2019-06-07T11:30:06.229Z,2.40
2019-06-07T11:31:06.337Z,3.70
2019-06-07T11:32:06.358Z,3.30
2019-06-07T11:33:06.412Z,2.40
2019-06-07T11:34:06.328Z,2.60
2019-06-07T11:35:06.391Z,2.60
2019-06-07T11:36:06.682Z,3.50
2019-06-07T11:37:07.346Z,4.00
2019-06-07T11:38:06.390Z,2.50
2019-06-07T11:39:06.514Z,2.70
2019-06-07T11:40:07.866Z,2.40
2019-06-07T11:41:07.346Z,2.80
2019-06-07T11:42:07.796Z,4.00
2019-06-07T11:43:06.676Z,3.20
2019-06-07T11:44:06.724Z,2.40
2019-06-07T11:45:07.791Z,2.80
2019-06-07T11:46:06.752Z,5.10
2019-06-07T11:47:08.117Z,2.50
2019-06-07T11:48:07.186Z,2.90
2019-06-07T11:49:08.172Z,3.40
2019-06-07T11:50:07.287Z,2.80
2019-06-07T11:51:07.256Z,3.20
2019-06-07T11:52:07.308Z,3.00
2019-06-07T11:53:08.514Z,2.50
2019-06-07T11:54:07.769Z,3.80
2019-06-07T11:55:08.826Z,2.80
2019-06-07T11:56:07.864Z,3.60
2019-06-07T11:57:07.307Z,4.50
2019-06-07T11:58:11.644Z,5.90
2019-06-07T11:59:07.434Z,2.90
2019-06-07T12:00:07.496Z,3.60
2019-06-07T12:01:08.046Z,3.20
2019-06-07T12:02:07.622Z,2.80
2019-06-07T12:03:07.686Z,3.50
2019-06-07T12:04:07.748Z,3.90
2019-06-07T12:05:07.812Z,3.40
2019-06-07T12:06:08.324Z,3.40
2019-06-07T12:07:10.849Z,4.00
2019-06-07T12:08:08.088Z,3.30
2019-06-07T12:09:08.579Z,6.20
2019-06-07T12:10:08.570Z,4.60
2019-06-07T12:11:08.194Z,2.80
2019-06-07T12:12:08.258Z,2.80
2019-06-07T12:13:08.436Z,3.60
2019-06-07T12:14:08.708Z,4.40
2019-06-07T12:15:08.868Z,3.10
2019-06-07T12:16:09.081Z,2.50
2019-06-07T12:17:09.014Z,2.40
2019-06-07T12:18:09.200Z,2.40
2019-06-07T12:19:09.688Z,2.40
2019-06-07T12:20:10.799Z,2.60
2019-06-07T12:21:09.566Z,2.30
2019-06-07T12:22:09.859Z,3.00
2019-06-07T12:23:10.007Z,3.40
2019-06-07T12:24:10.332Z,3.00
2019-06-07T12:25:10.374Z,3.70
2019-06-07T12:26:10.255Z,2.60
2019-06-07T12:27:10.288Z,3.60
2019-06-07T12:28:10.633Z,2.50
2019-06-07T12:29:10.657Z,3.60
2019-06-07T12:30:15.454Z,3.20
2019-06-07T12:31:10.758Z,2.60
2019-06-07T12:32:09.584Z,4.20
2019-06-07T12:33:09.651Z,4.30
2019-06-07T12:34:09.714Z,2.60
2019-06-07T12:35:09.783Z,3.50
2019-06-07T12:36:09.853Z,2.80
2019-06-07T12:37:09.915Z,2.50
2019-06-07T12:38:09.985Z,2.50
2019-06-07T12:39:10.051Z,2.50
2019-06-07T12:40:10.212Z,2.60
2019-06-07T12:41:10.191Z,2.50
2019-06-07T12:42:10.258Z,2.40
2019-06-07T12:43:10.326Z,2.90
2019-06-07T12:44:10.417Z,2.80
2019-06-07T12:45:10.467Z,6.80
2019-06-07T12:46:14.482Z,3.40
2019-06-07T12:47:10.606Z,3.10
2019-06-07T12:48:10.682Z,4.90
2019-06-07T12:49:10.746Z,3.10
2019-06-07T12:50:10.818Z,2.60
2019-06-07T12:51:10.888Z,3.50
2019-06-07T12:52:13.812Z,2.40
2019-06-07T12:53:11.075Z,2.70
2019-06-07T12:54:11.119Z,2.60
2019-06-07T12:55:11.172Z,2.60
2019-06-07T12:56:11.244Z,2.50
2019-06-07T12:57:11.317Z,5.40
2019-06-07T12:58:11.989Z,2.60
2019-06-07T12:59:12.027Z,3.00
2019-06-07T13:00:11.539Z,3.60
2019-06-07T13:01:12.315Z,2.60
2019-06-07T13:02:12.240Z,3.60
2019-06-07T13:03:11.747Z,2.50
2019-06-07T13:04:12.313Z,2.40
2019-06-07T13:06:11.965Z,4.50
2019-06-07T13:07:12.041Z,2.40
2019-06-07T13:08:12.109Z,3.10
2019-06-07T13:09:12.181Z,2.60
2019-06-07T13:10:12.849Z,2.40
2019-06-07T13:11:17.564Z,2.30
2019-06-07T13:12:13.001Z,2.40
2019-06-07T13:13:12.471Z,2.20
2019-06-07T13:14:12.543Z,2.30
2019-06-07T13:15:16.110Z,2.50
2019-06-07T13:16:13.515Z,4.10
2019-06-07T13:17:13.389Z,2.40
2019-06-07T13:18:15.167Z,2.40
2019-06-07T13:19:13.502Z,2.50
2019-06-07T13:20:13.526Z,2.80
2019-06-07T13:21:13.803Z,2.50
2019-06-07T13:22:13.124Z,2.40
2019-06-07T13:23:13.194Z,3.10
2019-06-07T13:24:13.268Z,2.80
2019-06-07T13:25:13.341Z,2.10
2019-06-07T13:26:13.412Z,3.50